Time;durP1;ratioP1;P1;durP2;ratioP2;P2;SDS_P1;SDS_P2;PMS_P1;PMS_P2;Temp;Humidity;BMP_temperature;BMP_pressure;BME280_temperature;BME280_humidity;BME280_pressure;Samples;Min_cycle;Max_cycle;Signal;HPM_P1;HPM_P2
2022/03/17 00:00:41;;;;;;;;;;;4.60;99.90;;;;;;5220057;28;19943;-82
2022/03/17 00:03:13;;;;;;;;;;;4.50;99.90;;;;;;5216570;28;19951;-81
2022/03/17 00:05:45;;;;;;;;;;;4.60;99.90;;;;;;5213213;28;20399;-83
2022/03/17 00:08:17;;;;;;;;;;;4.60;99.90;;;;;;5214025;28;20917;-81
2022/03/17 00:10:50;;;;;;;;;;;4.60;99.90;;;;;;5226262;28;19928;-81
2022/03/17 00:13:22;;;;;;;;;;;4.60;99.90;;;;;;5214970;28;19933;-81
2022/03/17 00:15:54;;;;;;;;;;;4.60;99.90;;;;;;5215862;28;19924;-82
2022/03/17 00:18:27;;;;;;;;;;;4.60;99.90;;;;;;5221751;28;19932;-83
2022/03/17 00:21:02;;;;;;;;;;;4.50;99.90;;;;;;5219520;28;19920;-81
2022/03/17 00:23:35;;;;;;;;;;;4.50;99.90;;;;;;5218820;28;19927;-83
2022/03/17 00:26:07;;;;;;;;;;;4.50;99.90;;;;;;5213988;28;19929;-83
2022/03/17 00:28:39;;;;;;;;;;;4.50;99.90;;;;;;5207397;28;19924;-84
2022/03/17 00:31:11;;;;;;;;;;;4.50;99.90;;;;;;5223441;28;19924;-82
2022/03/17 00:33:44;;;;;;;;;;;4.50;99.90;;;;;;5224217;28;19928;-83
2022/03/17 00:36:16;;;;;;;;;;;4.50;99.90;;;;;;5216589;28;19924;-83
2022/03/17 00:38:48;;;;;;;;;;;4.50;99.90;;;;;;5211645;28;19925;-81
2022/03/17 00:41:22;;;;;;;;;;;4.50;99.90;;;;;;5241205;28;19925;-83
2022/03/17 00:43:54;;;;;;;;;;;4.50;99.90;;;;;;5214381;28;19935;-82
2022/03/17 00:46:26;;;;;;;;;;;4.50;99.90;;;;;;5224486;28;19943;-82
2022/03/17 00:48:59;;;;;;;;;;;4.40;99.90;;;;;;5223117;28;19924;-82
2022/03/17 00:51:31;;;;;;;;;;;4.50;99.90;;;;;;5232603;28;19932;-83
2022/03/17 00:54:03;;;;;;;;;;;4.40;99.90;;;;;;5220062;28;19920;-83
2022/03/17 00:56:35;;;;;;;;;;;4.40;99.90;;;;;;5226891;28;20482;-82
2022/03/17 00:59:07;;;;;;;;;;;4.40;99.90;;;;;;5221996;28;19924;-81
2022/03/17 01:01:39;;;;;;;;;;;4.40;99.90;;;;;;5219598;28;20570;-82
2022/03/17 01:04:12;;;;;;;;;;;4.40;99.90;;;;;;5224309;28;19921;-83
2022/03/17 01:06:44;;;;;;;;;;;4.50;99.90;;;;;;5231093;28;19928;-83
2022/03/17 01:09:16;;;;;;;;;;;4.40;99.90;;;;;;5219972;28;20316;-82
2022/03/17 01:11:49;;;;;;;;;;;4.50;99.90;;;;;;5197812;28;19925;-82
2022/03/17 01:14:21;;;;;;;;;;;4.40;99.90;;;;;;5225979;28;19925;-81
2022/03/17 01:16:53;;;;;;;;;;;4.50;99.90;;;;;;5240068;28;19928;-83
2022/03/17 01:19:26;;;;;;;;;;;4.50;99.90;;;;;;5223431;28;19931;-83
2022/03/17 01:21:58;;;;;;;;;;;4.50;99.90;;;;;;5221241;28;19935;-83
2022/03/17 01:24:30;;;;;;;;;;;4.50;99.90;;;;;;5232285;28;19928;-82
2022/03/17 01:27:03;;;;;;;;;;;4.50;99.90;;;;;;5228858;28;19920;-82
2022/03/17 01:29:35;;;;;;;;;;;4.50;99.90;;;;;;5228003;28;20026;-83
2022/03/17 01:32:08;;;;;;;;;;;4.40;99.90;;;;;;5226839;28;20453;-83
2022/03/17 01:34:40;;;;;;;;;;;4.40;99.90;;;;;;5245356;28;19982;-81
2022/03/17 01:37:13;;;;;;;;;;;4.40;99.90;;;;;;5232689;28;20397;-82
2022/03/17 01:39:45;;;;;;;;;;;4.40;99.90;;;;;;5227116;28;19921;-81
2022/03/17 01:42:17;;;;;;;;;;;4.40;99.90;;;;;;5223502;28;19924;-82
2022/03/17 01:44:50;;;;;;;;;;;4.40;99.90;;;;;;5225283;28;19920;-84
2022/03/17 01:47:29;;;;;;;;;;;4.40;99.90;;;;;;5238735;28;20339;-83
2022/03/17 01:50:03;;;;;;;;;;;4.50;99.90;;;;;;5225569;28;20587;-81
2022/03/17 01:52:36;;;;;;;;;;;4.50;99.90;;;;;;5226760;28;20295;-83
2022/03/17 01:55:09;;;;;;;;;;;4.50;99.90;;;;;;5227194;28;19929;-82
2022/03/17 01:57:42;;;;;;;;;;;4.50;99.90;;;;;;5194580;28;19935;-83
2022/03/17 02:00:18;;;;;;;;;;;4.50;99.90;;;;;;5216986;28;19928;-81
2022/03/17 02:02:52;;;;;;;;;;;4.50;99.90;;;;;;5222965;28;20280;-84
2022/03/17 02:05:24;;;;;;;;;;;4.60;99.90;;;;;;5220190;28;19928;-81
2022/03/17 02:07:57;;;;;;;;;;;4.50;99.90;;;;;;5238434;28;19931;-81
2022/03/17 02:13:08;;;;;;;;;;;4.60;99.90;;;;;;5225131;28;19935;-81
2022/03/17 02:13:21;;;;;;;;;;;4.60;99.90;;;;;;5219096;28;19925;-81
2022/03/17 02:15:54;;;;;;;;;;;4.60;99.90;;;;;;5224750;28;20130;-82
2022/03/17 02:18:26;;;;;;;;;;;4.60;99.90;;;;;;5214307;28;20387;-83
2022/03/17 02:20:59;;;;;;;;;;;4.50;99.90;;;;;;5226257;28;19924;-83
2022/03/17 02:26:22;;;;;;;;;;;4.50;99.90;;;;;;5227054;28;19921;-82
2022/03/17 02:28:55;;;;;;;;;;;4.50;99.90;;;;;;5220204;28;19928;-81
2022/03/17 02:31:27;;;;;;;;;;;4.50;99.90;;;;;;5233863;28;19932;-84
2022/03/17 02:33:59;;;;;;;;;;;4.50;99.90;;;;;;5234113;28;19928;-82
2022/03/17 02:36:32;;;;;;;;;;;4.60;99.90;;;;;;5232722;28;19927;-81
2022/03/17 02:39:06;;;;;;;;;;;4.60;99.90;;;;;;5251864;28;20219;-82
2022/03/17 02:41:38;;;;;;;;;;;4.60;99.90;;;;;;5232169;28;19926;-81
2022/03/17 02:44:11;;;;;;;;;;;4.60;99.90;;;;;;5230333;28;19939;-81
2022/03/17 02:46:43;;;;;;;;;;;4.60;99.90;;;;;;5226834;28;19927;-82
2022/03/17 02:49:17;;;;;;;;;;;4.60;99.90;;;;;;5246009;28;19935;-81
2022/03/17 02:51:50;;;;;;;;;;;4.60;99.90;;;;;;5241367;28;20394;-81
2022/03/17 02:54:22;;;;;;;;;;;4.60;99.90;;;;;;5217112;28;19932;-83
2022/03/17 02:56:54;;;;;;;;;;;4.60;99.90;;;;;;5217231;28;19928;-81
2022/03/17 02:59:27;;;;;;;;;;;4.50;99.90;;;;;;5223023;28;19931;-82
2022/03/17 03:02:04;;;;;;;;;;;4.50;99.90;;;;;;5228186;28;19924;-83
2022/03/17 03:04:37;;;;;;;;;;;4.40;99.90;;;;;;5225301;28;19928;-83
2022/03/17 03:07:09;;;;;;;;;;;4.40;99.90;;;;;;5226726;28;19925;-83
2022/03/17 03:09:42;;;;;;;;;;;4.40;99.90;;;;;;5216618;28;20212;-81
2022/03/17 03:12:14;;;;;;;;;;;4.40;99.90;;;;;;5217020;28;19928;-81
2022/03/17 03:14:46;;;;;;;;;;;4.30;99.90;;;;;;5209694;28;19928;-82
2022/03/17 03:17:21;;;;;;;;;;;4.30;99.90;;;;;;5214778;28;21660;-83
2022/03/17 03:19:53;;;;;;;;;;;4.30;99.90;;;;;;5196895;28;19924;-82
2022/03/17 03:22:29;;;;;;;;;;;4.30;99.90;;;;;;5221421;28;19924;-84
2022/03/17 03:25:01;;;;;;;;;;;4.30;99.90;;;;;;5226918;28;19939;-82
2022/03/17 03:27:34;;;;;;;;;;;4.30;99.90;;;;;;5213208;28;19929;-81
2022/03/17 03:30:08;;;;;;;;;;;4.30;99.90;;;;;;5217558;28;20375;-82
2022/03/17 03:32:47;;;;;;;;;;;4.30;99.90;;;;;;5221337;28;20474;-83
2022/03/17 03:38:10;;;;;;;;;;;4.20;99.90;;;;;;5213969;28;20014;-82
2022/03/17 03:40:42;;;;;;;;;;;4.30;99.90;;;;;;5218013;28;19931;-80
2022/03/17 03:43:14;;;;;;;;;;;4.30;99.90;;;;;;5215337;28;19920;-81
2022/03/17 03:45:50;;;;;;;;;;;4.30;99.90;;;;;;5213622;28;19974;-81
2022/03/17 03:48:22;;;;;;;;;;;4.20;99.90;;;;;;5191099;28;19935;-82
2022/03/17 03:50:54;;;;;;;;;;;4.30;99.90;;;;;;5208619;28;19928;-81
2022/03/17 03:54:12;;;;;;;;;;;4.30;99.90;;;;;;5207667;28;19936;-80
2022/03/17 03:56:19;;;;;;;;;;;4.30;99.90;;;;;;5194323;28;19928;-80
2022/03/17 03:58:51;;;;;;;;;;;4.30;99.90;;;;;;5212903;28;19928;-81
2022/03/17 04:01:25;;;;;;;;;;;4.30;99.90;;;;;;5213433;28;19958;-80
2022/03/17 04:03:57;;;;;;;;;;;4.30;99.90;;;;;;5218015;28;19928;-82
2022/03/17 04:06:31;;;;;;;;;;;4.20;99.90;;;;;;5215041;28;19929;-79
2022/03/17 04:09:03;;;;;;;;;;;4.20;99.90;;;;;;5220541;28;25548;-82
2022/03/17 04:11:36;;;;;;;;;;;4.20;99.90;;;;;;5212817;28;19928;-82
2022/03/17 04:14:08;;;;;;;;;;;4.10;99.90;;;;;;5211304;28;20648;-81
2022/03/17 04:16:41;;;;;;;;;;;4.10;99.90;;;;;;5210522;28;19928;-81
2022/03/17 04:19:15;;;;;;;;;;;4.10;99.90;;;;;;5206751;28;20759;-79
2022/03/17 04:21:48;;;;;;;;;;;4.10;99.90;;;;;;5213210;28;20784;-82
2022/03/17 04:24:21;;;;;;;;;;;4.10;99.90;;;;;;5217720;28;19928;-81
2022/03/17 04:26:53;;;;;;;;;;;4.00;99.90;;;;;;5206196;28;19935;-81
2022/03/17 04:29:28;;;;;;;;;;;4.00;99.90;;;;;;5213962;28;19921;-81
2022/03/17 04:32:00;;;;;;;;;;;4.00;99.90;;;;;;5211144;28;20590;-81
2022/03/17 04:34:32;;;;;;;;;;;4.00;99.90;;;;;;5215886;28;19955;-81
2022/03/17 04:37:04;;;;;;;;;;;4.10;99.90;;;;;;5211730;28;19928;-81
2022/03/17 04:39:36;;;;;;;;;;;4.10;99.90;;;;;;5210318;28;19924;-80
2022/03/17 04:42:09;;;;;;;;;;;4.10;99.90;;;;;;5207000;28;19928;-81
2022/03/17 04:44:42;;;;;;;;;;;4.10;99.90;;;;;;5194187;28;19928;-81
2022/03/17 04:47:15;;;;;;;;;;;4.10;99.90;;;;;;5205765;28;20574;-81
2022/03/17 04:49:49;;;;;;;;;;;4.10;99.90;;;;;;5212238;28;20489;-81
2022/03/17 04:55:12;;;;;;;;;;;4.10;99.90;;;;;;5207376;28;19924;-81
2022/03/17 04:57:44;;;;;;;;;;;4.10;99.90;;;;;;5206603;28;20481;-80
2022/03/17 05:00:16;;;;;;;;;;;4.10;99.90;;;;;;5208953;28;19929;-82
2022/03/17 05:02:49;;;;;;;;;;;4.10;99.90;;;;;;5209603;28;19925;-82
2022/03/17 05:05:21;;;;;;;;;;;4.10;99.90;;;;;;5197353;28;20611;-82
2022/03/17 05:07:57;;;;;;;;;;;4.10;99.90;;;;;;5208933;28;21230;-80
2022/03/17 05:10:29;;;;;;;;;;;4.10;99.90;;;;;;5206784;28;19928;-81
2022/03/17 05:13:07;;;;;;;;;;;4.10;99.90;;;;;;5220622;28;19931;-81
2022/03/17 05:15:39;;;;;;;;;;;4.10;99.90;;;;;;5210701;28;21292;-80
2022/03/17 05:18:12;;;;;;;;;;;4.10;99.90;;;;;;5211988;28;19924;-81
2022/03/17 05:20:44;;;;;;;;;;;4.00;99.90;;;;;;5211098;28;19920;-82
2022/03/17 05:23:18;;;;;;;;;;;4.10;99.90;;;;;;5203716;28;19936;-81
2022/03/17 05:25:50;;;;;;;;;;;4.00;99.90;;;;;;5208305;28;19930;-80
2022/03/17 05:28:23;;;;;;;;;;;4.10;99.90;;;;;;5215401;28;19935;-82
2022/03/17 05:30:55;;;;;;;;;;;4.00;99.90;;;;;;5196653;28;19929;-81
2022/03/17 05:33:27;;;;;;;;;;;4.10;99.90;;;;;;5206717;28;19932;-81
2022/03/17 05:36:00;;;;;;;;;;;4.10;99.90;;;;;;5205807;28;20412;-82
2022/03/17 05:38:32;;;;;;;;;;;4.10;99.90;;;;;;5206275;28;19925;-80
2022/03/17 05:41:05;;;;;;;;;;;4.00;99.90;;;;;;5207795;28;20299;-81
2022/03/17 05:43:38;;;;;;;;;;;4.00;99.90;;;;;;5225689;28;19935;-82
2022/03/17 05:46:10;;;;;;;;;;;4.10;99.90;;;;;;5203711;28;19924;-78
2022/03/17 05:48:42;;;;;;;;;;;4.10;99.90;;;;;;5184461;28;19943;-79
2022/03/17 05:51:14;;;;;;;;;;;4.10;99.90;;;;;;5200219;28;20295;-77
2022/03/17 05:53:47;;;;;;;;;;;4.10;99.90;;;;;;5199569;28;19936;-78
2022/03/17 05:56:19;;;;;;;;;;;4.10;99.90;;;;;;5192906;28;19928;-78
2022/03/17 05:58:51;;;;;;;;;;;4.10;99.90;;;;;;5209661;28;19925;-78
2022/03/17 06:01:24;;;;;;;;;;;4.10;99.90;;;;;;5212449;28;19920;-78
2022/03/17 06:03:57;;;;;;;;;;;4.10;99.90;;;;;;5188453;28;20213;-78
2022/03/17 06:06:29;;;;;;;;;;;4.10;99.90;;;;;;5200384;28;19929;-80
2022/03/17 06:09:02;;;;;;;;;;;4.10;99.90;;;;;;5197057;28;19935;-79
2022/03/17 06:11:34;;;;;;;;;;;4.10;99.90;;;;;;5174949;28;19940;-78
2022/03/17 06:14:06;;;;;;;;;;;4.10;99.90;;;;;;5192484;28;20391;-80
2022/03/17 06:16:39;;;;;;;;;;;4.10;99.90;;;;;;5173146;28;20307;-78
2022/03/17 06:19:11;;;;;;;;;;;4.10;99.90;;;;;;5208868;28;20679;-78
2022/03/17 06:21:43;;;;;;;;;;;4.10;99.90;;;;;;5212821;28;19928;-77
2022/03/17 06:24:15;;;;;;;;;;;4.20;99.90;;;;;;5216537;28;19928;-80
2022/03/17 06:26:47;;;;;;;;;;;4.30;99.90;;;;;;5225054;28;19924;-79
2022/03/17 06:29:20;;;;;;;;;;;4.30;99.90;;;;;;5220545;28;20439;-79
2022/03/17 06:31:52;;;;;;;;;;;4.30;99.90;;;;;;5217281;28;20402;-78
2022/03/17 06:34:24;;;;;;;;;;;4.40;99.90;;;;;;5198283;28;19929;-80
2022/03/17 06:36:56;;;;;;;;;;;4.40;99.90;;;;;;5205184;28;19924;-80
2022/03/17 06:39:28;;;;;;;;;;;4.40;99.90;;;;;;5219523;28;19940;-77
2022/03/17 06:42:00;;;;;;;;;;;4.50;99.90;;;;;;5210104;28;19924;-80
2022/03/17 06:44:33;;;;;;;;;;;4.50;99.90;;;;;;5222816;28;20406;-81
2022/03/17 06:47:05;;;;;;;;;;;4.60;99.90;;;;;;5222058;28;20255;-81
2022/03/17 06:49:37;;;;;;;;;;;4.60;99.90;;;;;;5236059;28;19920;-80
2022/03/17 06:52:09;;;;;;;;;;;4.70;99.90;;;;;;5225248;28;19931;-78
2022/03/17 06:54:42;;;;;;;;;;;4.70;99.90;;;;;;5231573;28;20153;-79
2022/03/17 06:57:17;;;;;;;;;;;4.80;99.90;;;;;;5225357;28;19924;-80
2022/03/17 06:59:50;;;;;;;;;;;4.90;99.90;;;;;;5224312;28;20291;-79
2022/03/17 07:02:22;;;;;;;;;;;4.90;99.90;;;;;;5228189;28;19947;-80
2022/03/17 07:04:55;;;;;;;;;;;5.00;99.90;;;;;;5227085;28;19931;-79
2022/03/17 07:07:27;;;;;;;;;;;5.00;99.90;;;;;;5227800;28;20194;-81
2022/03/17 07:10:00;;;;;;;;;;;5.10;99.90;;;;;;5228247;28;19931;-79
2022/03/17 07:12:32;;;;;;;;;;;5.10;99.90;;;;;;5233497;28;19928;-80
2022/03/17 07:15:05;;;;;;;;;;;5.10;99.90;;;;;;5242638;28;19920;-80
2022/03/17 07:17:41;;;;;;;;;;;5.20;99.90;;;;;;5228659;28;19928;-80
2022/03/17 07:20:15;;;;;;;;;;;5.20;99.90;;;;;;5232261;28;19924;-78
2022/03/17 07:22:49;;;;;;;;;;;5.30;99.90;;;;;;5223571;28;19924;-80
2022/03/17 07:25:24;;;;;;;;;;;5.40;99.90;;;;;;5224704;28;22460;-81
2022/03/17 07:27:57;;;;;;;;;;;5.40;99.90;;;;;;5229565;28;19944;-80
2022/03/17 07:30:31;;;;;;;;;;;5.50;99.90;;;;;;5227545;28;19932;-80
2022/03/17 07:33:03;;;;;;;;;;;5.50;99.90;;;;;;5227334;28;19933;-78
2022/03/17 07:35:36;;;;;;;;;;;5.60;99.90;;;;;;5225008;28;19928;-79
2022/03/17 07:38:08;;;;;;;;;;;5.60;99.90;;;;;;5213686;28;20418;-80
2022/03/17 07:40:41;;;;;;;;;;;5.60;99.90;;;;;;5229662;28;19928;-78
2022/03/17 07:43:13;;;;;;;;;;;5.60;99.90;;;;;;5219754;28;19929;-81
2022/03/17 07:46:01;;;;;;;;;;;5.60;99.90;;;;;;5203786;28;20133;-80
2022/03/17 07:48:52;;;;;;;;;;;5.70;99.90;;;;;;5228255;28;19921;-80
2022/03/17 07:51:34;;;;;;;;;;;5.80;99.90;;;;;;5226414;28;19928;-79
2022/03/17 07:54:07;;;;;;;;;;;5.90;99.90;;;;;;5225917;28;19925;-79
2022/03/17 07:56:40;;;;;;;;;;;6.00;99.90;;;;;;5225955;28;19931;-80
2022/03/17 07:59:12;;;;;;;;;;;6.00;99.90;;;;;;5221396;28;19924;-80
2022/03/17 08:01:44;;;;;;;;;;;6.10;99.90;;;;;;5229161;28;19925;-80
2022/03/17 08:04:17;;;;;;;;;;;6.20;99.90;;;;;;5220089;28;19920;-79
2022/03/17 08:06:53;;;;;;;;;;;6.30;99.90;;;;;;5227361;28;19924;-80
2022/03/17 08:09:25;;;;;;;;;;;6.30;99.90;;;;;;5223558;28;20403;-81
2022/03/17 08:11:59;;;;;;;;;;;6.40;99.90;;;;;;5160906;22;19934;-51
2022/03/17 08:14:31;;;;;;;;;;;6.50;99.90;;;;;;5114498;28;20406;-53
2022/03/17 08:17:04;;;;;;;;;;;6.50;99.90;;;;;;5118103;28;19930;-49
2022/03/17 08:19:37;;;;;;;;;;;6.50;99.90;;;;;;5117943;28;19929;-55
2022/03/17 08:22:09;;;;;;;;;;;6.50;99.90;;;;;;5117326;28;19942;-50
2022/03/17 08:24:53;;;;;;;;;;;6.60;99.90;;;;;;5118276;28;20313;-47
2022/03/17 08:27:25;;;;;;;;;;;6.70;99.90;;;;;;5111611;28;19930;-51
2022/03/17 08:29:58;;;;;;;;;;;6.70;99.90;;;;;;5113379;28;19926;-53
2022/03/17 08:32:30;;;;;;;;;;;6.70;99.90;;;;;;5116714;28;19933;-53
2022/03/17 08:35:02;;;;;;;;;;;6.80;99.90;;;;;;5120514;28;19926;-48
2022/03/17 08:37:39;;;;;;;;;;;6.90;99.90;;;;;;5119590;28;20305;-51
2022/03/17 08:40:12;;;;;;;;;;;6.90;99.90;;;;;;5123058;28;19926;-51
2022/03/17 08:42:45;;;;;;;;;;;6.90;99.90;;;;;;5116245;28;19930;-52
2022/03/17 08:50:59;;;;;;;;;;;7.10;99.70;;;;;;5119971;28;19926;-55
2022/03/17 08:53:31;;;;;;;;;;;7.10;99.10;;;;;;5117364;28;20411;-51
2022/03/17 08:56:03;;;;;;;;;;;7.10;99.90;;;;;;5121103;28;19922;-54
2022/03/17 08:58:37;;;;;;;;;;;7.10;99.40;;;;;;5120260;28;19933;-53
2022/03/17 09:01:10;;;;;;;;;;;7.10;99.10;;;;;;5121374;28;19933;-51
2022/03/17 09:03:43;;;;;;;;;;;7.20;98.80;;;;;;5122123;28;19926;-54
2022/03/17 09:06:15;;;;;;;;;;;7.20;99.80;;;;;;5119010;28;20317;-51
2022/03/17 09:08:48;;;;;;;;;;;7.30;99.80;;;;;;5119118;28;19937;-50
2022/03/17 09:11:20;;;;;;;;;;;7.30;98.20;;;;;;5120507;28;20420;-55
2022/03/17 09:13:52;;;;;;;;;;;7.30;99.50;;;;;;5120129;28;19992;-54
2022/03/17 09:16:25;;;;;;;;;;;7.40;98.00;;;;;;5118609;28;20551;-55
2022/03/17 09:18:57;;;;;;;;;;;7.40;99.10;;;;;;5119787;28;20293;-52
2022/03/17 09:21:29;;;;;;;;;;;7.40;99.90;;;;;;5126416;28;19930;-52
2022/03/17 09:24:03;;;;;;;;;;;7.50;99.60;;;;;;5116943;28;19927;-51
2022/03/17 09:26:36;;;;;;;;;;;7.60;99.40;;;;;;5116773;28;20291;-52
2022/03/17 09:29:08;;;;;;;;;;;7.70;99.60;;;;;;5113784;28;19925;-55
2022/03/17 09:31:40;;;;;;;;;;;7.80;99.20;;;;;;5116191;28;19926;-54
2022/03/17 09:34:12;;;;;;;;;;;7.80;98.50;;;;;;5116150;28;20373;-53
2022/03/17 09:36:45;;;;;;;;;;;7.80;98.90;;;;;;5113350;28;19937;-55
2022/03/17 09:42:08;;;;;;;;;;;8.00;97.60;;;;;;5116836;28;19926;-50
2022/03/17 09:44:46;;;;;;;;;;;8.00;98.20;;;;;;5116503;28;19929;-51
2022/03/17 09:47:19;;;;;;;;;;;7.90;97.10;;;;;;5117892;28;19933;-51
2022/03/17 09:49:53;;;;;;;;;;;7.90;97.20;;;;;;5118836;28;19922;-53
2022/03/17 09:52:26;;;;;;;;;;;7.90;97.30;;;;;;5116456;28;19927;-50
2022/03/17 09:54:58;;;;;;;;;;;8.00;96.60;;;;;;5118311;28;19922;-53
2022/03/17 09:57:31;;;;;;;;;;;8.00;98.00;;;;;;5116216;28;20381;-53
2022/03/17 10:00:06;;;;;;;;;;;8.10;98.30;;;;;;5115736;28;19926;-50
2022/03/17 10:02:39;;;;;;;;;;;8.10;97.60;;;;;;5119893;28;19927;-51
2022/03/17 10:05:11;;;;;;;;;;;8.20;97.50;;;;;;5120765;28;20317;-52
2022/03/17 10:07:47;;;;;;;;;;;8.20;95.80;;;;;;5115494;28;19922;-55
2022/03/17 10:10:22;;;;;;;;;;;8.20;96.00;;;;;;5115956;28;19923;-51
2022/03/17 10:13:10;;;;;;;;;;;8.20;96.40;;;;;;5119638;28;19931;-55
2022/03/17 10:15:47;;;;;;;;;;;8.30;97.50;;;;;;5115920;28;20280;-56
2022/03/17 10:18:23;;;;;;;;;;;8.40;97.10;;;;;;5122663;28;19934;-51
2022/03/17 10:21:18;;;;;;;;;;;8.40;96.20;;;;;;5123043;28;19926;-51
2022/03/17 10:23:56;;;;;;;;;;;8.40;96.90;;;;;;5127172;28;19922;-50
2022/03/17 10:26:42;;;;;;;;;;;8.50;99.60;;;;;;5122357;28;19926;-51
2022/03/17 10:29:19;;;;;;;;;;;8.60;99.20;;;;;;5119885;28;20352;-54
2022/03/17 10:31:54;;;;;;;;;;;8.60;99.70;;;;;;5122172;28;20290;-54
2022/03/17 10:34:31;;;;;;;;;;;8.70;99.70;;;;;;5122474;28;19922;-53
2022/03/17 10:37:06;;;;;;;;;;;8.70;99.90;;;;;;5126348;28;19925;-52
2022/03/17 10:39:42;;;;;;;;;;;8.80;99.90;;;;;;5124571;28;19930;-53
2022/03/17 10:42:19;;;;;;;;;;;8.90;99.90;;;;;;5125537;28;19931;-53
2022/03/17 10:44:52;;;;;;;;;;;9.00;99.90;;;;;;5125084;28;20369;-52
2022/03/17 10:47:25;;;;;;;;;;;9.00;99.90;;;;;;5126315;28;19930;-53
2022/03/17 10:50:02;;;;;;;;;;;9.10;99.90;;;;;;5121616;28;19922;-53
2022/03/17 10:52:43;;;;;;;;;;;9.10;99.90;;;;;;5123740;28;19933;-51
2022/03/17 10:55:18;;;;;;;;;;;9.10;98.90;;;;;;5124805;28;19937;-51
2022/03/17 10:57:52;;;;;;;;;;;9.00;99.90;;;;;;5121982;28;20507;-54
2022/03/17 11:00:26;;;;;;;;;;;9.10;99.50;;;;;;5125580;28;19922;-54
2022/03/17 11:02:58;;;;;;;;;;;9.10;99.90;;;;;;5125359;28;19926;-55
2022/03/17 11:05:31;;;;;;;;;;;9.10;99.90;;;;;;5123413;28;20409;-53
2022/03/17 11:08:06;;;;;;;;;;;9.10;99.20;;;;;;5125242;28;19949;-55
2022/03/17 11:10:39;;;;;;;;;;;9.00;99.90;;;;;;5126216;28;20274;-50
2022/03/17 11:13:40;;;;;;;;;;;9.00;99.90;;;;;;5103802;28;19923;-77
2022/03/17 11:16:14;;;;;;;;;;;9.10;99.90;;;;;;5117931;28;19926;-78
2022/03/17 11:18:47;;;;;;;;;;;9.10;99.90;;;;;;5098776;28;19927;-78
2022/03/17 11:21:26;;;;;;;;;;;9.20;99.90;;;;;;5132543;28;19926;-78
2022/03/17 11:24:04;;;;;;;;;;;9.20;99.90;;;;;;5121487;28;19927;-79
2022/03/17 11:26:41;;;;;;;;;;;9.30;99.80;;;;;;5138202;28;19934;-79
2022/03/17 11:29:14;;;;;;;;;;;9.20;99.60;;;;;;5095001;28;19922;-78
2022/03/17 11:31:58;;;;;;;;;;;9.20;99.90;;;;;;5126208;28;19934;-78
2022/03/17 11:34:47;;;;;;;;;;;9.30;99.90;;;;;;5119341;28;20424;-77
2022/03/17 11:37:19;;;;;;;;;;;9.30;99.90;;;;;;5109780;28;20974;-79
2022/03/17 11:40:13;;;;;;;;;;;9.40;99.90;;;;;;5146415;28;19921;-79
2022/03/17 11:43:03;;;;;;;;;;;9.40;99.70;;;;;;5108339;28;19922;-79
2022/03/17 11:45:37;;;;;;;;;;;9.40;99.90;;;;;;5121206;28;19960;-79
2022/03/17 11:48:11;;;;;;;;;;;9.50;99.90;;;;;;5157508;28;19930;-80
2022/03/17 11:50:45;;;;;;;;;;;9.50;99.90;;;;;;5136275;28;20058;-79
2022/03/17 11:53:20;;;;;;;;;;;9.50;99.90;;;;;;5120069;28;19925;-79
2022/03/17 11:55:54;;;;;;;;;;;9.50;99.90;;;;;;5142522;28;19930;-79
2022/03/17 11:58:43;;;;;;;;;;;9.60;99.90;;;;;;5111866;28;19927;-78
2022/03/17 12:01:27;;;;;;;;;;;9.60;99.90;;;;;;5103202;28;19931;-78
2022/03/17 12:04:00;;;;;;;;;;;9.70;99.50;;;;;;5141335;28;19933;-79
2022/03/17 12:06:34;;;;;;;;;;;9.70;98.30;;;;;;5149545;28;20188;-79
2022/03/17 12:09:09;;;;;;;;;;;9.70;97.20;;;;;;5153161;28;20403;-78
2022/03/17 12:11:44;;;;;;;;;;;9.70;97.20;;;;;;5135706;28;19930;-78
2022/03/17 12:14:22;;;;;;;;;;;9.70;96.70;;;;;;5119745;28;19935;-79
2022/03/17 12:17:09;;;;;;;;;;;9.70;97.40;;;;;;5114367;28;19929;-79
2022/03/17 12:19:48;;;;;;;;;;;9.80;97.70;;;;;;5141928;28;19924;-79
2022/03/17 12:22:43;;;;;;;;;;;9.80;95.70;;;;;;5131081;28;19927;-79
2022/03/17 12:25:20;;;;;;;;;;;9.70;96.60;;;;;;5110577;28;19945;-78
2022/03/17 12:27:56;;;;;;;;;;;9.70;97.60;;;;;;5116193;28;19921;-79
2022/03/17 12:30:30;;;;;;;;;;;9.80;97.90;;;;;;5121465;28;20494;-79
2022/03/17 12:33:06;;;;;;;;;;;9.80;97.10;;;;;;5118681;28;19933;-78
2022/03/17 12:35:39;;;;;;;;;;;9.80;97.20;;;;;;5135486;28;19937;-79
2022/03/17 12:38:11;;;;;;;;;;;9.90;97.20;;;;;;5142808;28;19928;-78
2022/03/17 12:40:44;;;;;;;;;;;9.90;97.20;;;;;;5110660;28;20308;-79
2022/03/17 12:43:17;;;;;;;;;;;9.90;96.40;;;;;;5131992;28;20301;-79
2022/03/17 12:45:53;;;;;;;;;;;9.90;95.40;;;;;;5131287;28;19926;-78
2022/03/17 12:48:27;;;;;;;;;;;9.90;95.50;;;;;;5149312;28;19926;-79
2022/03/17 12:51:07;;;;;;;;;;;9.90;95.80;;;;;;5092622;28;20288;-80
2022/03/17 12:53:40;;;;;;;;;;;9.90;95.80;;;;;;5103329;28;20710;-80
2022/03/17 12:56:15;;;;;;;;;;;9.90;95.00;;;;;;5142222;28;19926;-79
2022/03/17 12:58:48;;;;;;;;;;;10.00;95.10;;;;;;5134003;28;19922;-79
2022/03/17 13:01:20;;;;;;;;;;;10.00;94.70;;;;;;5128743;28;19930;-78
2022/03/17 13:03:54;;;;;;;;;;;10.00;95.10;;;;;;5121490;28;19931;-78
2022/03/17 13:09:18;;;;;;;;;;;10.10;95.10;;;;;;5093386;28;19937;-79
2022/03/17 13:14:49;;;;;;;;;;;10.10;94.40;;;;;;5114869;28;19938;-80
2022/03/17 13:17:28;;;;;;;;;;;10.10;94.80;;;;;;5089968;28;19930;-79
2022/03/17 13:20:00;;;;;;;;;;;10.10;95.00;;;;;;5103562;28;19922;-78
2022/03/17 13:22:33;;;;;;;;;;;10.20;95.00;;;;;;5125862;28;19942;-78
2022/03/17 13:25:10;;;;;;;;;;;10.20;94.60;;;;;;5106062;28;19925;-79
2022/03/17 13:27:44;;;;;;;;;;;10.20;94.90;;;;;;5114146;28;19922;-79
2022/03/17 13:30:17;;;;;;;;;;;10.30;94.90;;;;;;5110604;28;19931;-78
2022/03/17 13:33:03;;;;;;;;;;;10.30;94.40;;;;;;5121116;28;20352;-78
2022/03/17 13:35:36;;;;;;;;;;;10.30;94.40;;;;;;5120313;28;19927;-78
2022/03/17 13:38:09;;;;;;;;;;;10.40;94.40;;;;;;5102144;28;19953;-77
2022/03/17 13:40:43;;;;;;;;;;;10.40;93.90;;;;;;5114708;28;20555;-77
2022/03/17 13:43:24;;;;;;;;;;;10.40;93.50;;;;;;5080737;28;21101;-78
2022/03/17 13:45:57;;;;;;;;;;;10.30;93.40;;;;;;5103461;28;20293;-77
2022/03/17 13:48:31;;;;;;;;;;;10.30;92.60;;;;;;5111978;28;19926;-78
2022/03/17 13:51:04;;;;;;;;;;;10.20;93.40;;;;;;5070570;28;19957;-77
2022/03/17 13:53:39;;;;;;;;;;;10.20;93.50;;;;;;5070967;28;20402;-77
2022/03/17 13:56:12;;;;;;;;;;;10.20;93.40;;;;;;5093956;28;20329;-78
2022/03/17 13:58:45;;;;;;;;;;;10.20;93.20;;;;;;5094612;28;20958;-79
2022/03/17 14:01:17;;;;;;;;;;;10.20;93.00;;;;;;5082008;28;19930;-78
2022/03/17 14:03:51;;;;;;;;;;;10.20;92.70;;;;;;5101856;28;20337;-79
2022/03/17 14:06:29;;;;;;;;;;;10.20;92.60;;;;;;5107140;28;19926;-78
2022/03/17 14:09:02;;;;;;;;;;;10.20;92.50;;;;;;5110547;28;19926;-78
2022/03/17 14:11:38;;;;;;;;;;;10.20;92.40;;;;;;5132860;22;19926;-53
2022/03/17 14:14:11;;;;;;;;;;;10.20;92.40;;;;;;5125469;28;20321;-53
2022/03/17 14:16:43;;;;;;;;;;;10.20;92.10;;;;;;5118539;28;19930;-53
2022/03/17 14:19:16;;;;;;;;;;;10.20;93.30;;;;;;5121701;28;19937;-52
2022/03/17 14:24:41;;;;;;;;;;;10.20;92.80;;;;;;5124908;28;19926;-51
2022/03/17 14:27:14;;;;;;;;;;;10.20;92.50;;;;;;5120994;28;20275;-50
2022/03/17 14:29:46;;;;;;;;;;;10.20;92.60;;;;;;5114746;28;19930;-52
2022/03/17 14:32:19;;;;;;;;;;;10.20;93.60;;;;;;5098281;28;19930;-48
2022/03/17 14:34:51;;;;;;;;;;;10.20;92.70;;;;;;5124569;28;19922;-52
2022/03/17 14:37:24;;;;;;;;;;;10.20;93.10;;;;;;5108448;28;19946;-54
2022/03/17 14:39:56;;;;;;;;;;;10.20;94.50;;;;;;5112892;28;19926;-51
2022/03/17 14:42:30;;;;;;;;;;;10.20;92.80;;;;;;5098747;28;19930;-51
2022/03/17 14:45:03;;;;;;;;;;;10.20;92.80;;;;;;5117886;28;19926;-51
2022/03/17 14:47:36;;;;;;;;;;;10.20;93.00;;;;;;5117342;28;20527;-52
2022/03/17 14:50:09;;;;;;;;;;;10.20;93.10;;;;;;5121412;28;19937;-53
2022/03/17 14:52:42;;;;;;;;;;;10.20;93.80;;;;;;5124729;28;19922;-51
2022/03/17 14:55:14;;;;;;;;;;;10.20;93.70;;;;;;5137467;28;19937;-52
2022/03/17 14:57:46;;;;;;;;;;;10.20;93.40;;;;;;5120303;28;20340;-51
2022/03/17 15:00:20;;;;;;;;;;;10.10;93.20;;;;;;5118302;28;19930;-52
2022/03/17 15:02:52;;;;;;;;;;;10.10;93.70;;;;;;5119100;28;19929;-49
2022/03/17 15:05:25;;;;;;;;;;;10.10;93.80;;;;;;5115326;28;19930;-52
2022/03/17 15:07:57;;;;;;;;;;;10.00;93.70;;;;;;5123767;28;19926;-53
2022/03/17 15:10:30;;;;;;;;;;;10.10;94.00;;;;;;5118394;28;19933;-50
2022/03/17 15:13:02;;;;;;;;;;;10.00;94.40;;;;;;5133012;28;19933;-49
2022/03/17 15:15:35;;;;;;;;;;;10.00;94.40;;;;;;5112103;28;19937;-51
2022/03/17 15:18:07;;;;;;;;;;;10.00;94.30;;;;;;5116335;28;19926;-53
2022/03/17 15:20:41;;;;;;;;;;;10.00;94.40;;;;;;5121252;28;19930;-53
2022/03/17 15:23:13;;;;;;;;;;;9.90;94.70;;;;;;5120025;28;19926;-54
2022/03/17 15:25:45;;;;;;;;;;;9.90;94.90;;;;;;5114693;28;19949;-54
2022/03/17 15:31:09;;;;;;;;;;;9.90;95.00;;;;;;5118431;28;19930;-52
2022/03/17 15:33:42;;;;;;;;;;;9.90;95.10;;;;;;5108041;28;19930;-52
2022/03/17 15:36:14;;;;;;;;;;;9.90;95.30;;;;;;5135283;28;19926;-53